WON1326 WAAA-WAFO
Flight info
| Callsign | WON1326 |
|---|---|
| Flight time | 1h 5m |
| Altitude | 15000 |
| Route | VENRU W32 DIOLA |
| Aircraft | AT76/M-SDFGIRY/S |
Departure
| Time | 2026-05-06 07:13 |
|---|---|
| Airport | Sultan Hasanuddin International Airport (WAAA) |
Arrival
| Time | 2026-05-06 08:19 |
|---|---|
| Airport | Maleo Airport (WAFO) |
| Time | Latitude | Longitude | Altitude | Speed | Heading |
|---|---|---|---|---|---|
| 2026-05-06 06:48 | -5.07661 | 119.55009 | 38 ft | 0 kts | 120° |
| 2026-05-06 07:02 | -5.07657 | 119.55002 | 38 ft | 2 kts | 119° |
| 2026-05-06 07:02 | -5.07650 | 119.54990 | 38 ft | 2 kts | 120° |
| 2026-05-06 07:03 | -5.07644 | 119.54978 | 38 ft | 2 kts | 119° |
| 2026-05-06 07:03 | -5.07637 | 119.54966 | 38 ft | 2 kts | 118° |
| 2026-05-06 07:03 | -5.07631 | 119.54954 | 38 ft | 2 kts | 115° |
| 2026-05-06 07:03 | -5.07626 | 119.54943 | 38 ft | 2 kts | 106° |
| 2026-05-06 07:04 | -5.07624 | 119.54935 | 38 ft | 1 kts | 83° |
| 2026-05-06 07:04 | -5.07626 | 119.54928 | 38 ft | 1 kts | 49° |
| 2026-05-06 07:04 | -5.07630 | 119.54924 | 38 ft | 1 kts | 35° |
| 2026-05-06 07:04 | -5.07634 | 119.54921 | 38 ft | 1 kts | 30° |
| 2026-05-06 07:05 | -5.07637 | 119.54919 | 38 ft | 0 kts | 29° |
| 2026-05-06 07:06 | -5.07633 | 119.54922 | 38 ft | 2 kts | 29° |
| 2026-05-06 07:06 | -5.07616 | 119.54931 | 38 ft | 4 kts | 29° |
| 2026-05-06 07:06 | -5.07593 | 119.54954 | 38 ft | 6 kts | 57° |
| 2026-05-06 07:07 | -5.07582 | 119.55003 | 38 ft | 9 kts | 95° |
| 2026-05-06 07:07 | -5.07614 | 119.55070 | 38 ft | 13 kts | 120° |
| 2026-05-06 07:07 | -5.07592 | 119.55143 | 38 ft | 11 kts | 32° |
| 2026-05-06 07:07 | -5.07530 | 119.55180 | 38 ft | 10 kts | 30° |
| 2026-05-06 07:08 | -5.07475 | 119.55211 | 38 ft | 9 kts | 28° |
| 2026-05-06 07:08 | -5.07427 | 119.55240 | 38 ft | 8 kts | 31° |
| 2026-05-06 07:08 | -5.07380 | 119.55267 | 38 ft | 8 kts | 29° |
| 2026-05-06 07:08 | -5.07328 | 119.55296 | 38 ft | 10 kts | 28° |
| 2026-05-06 07:09 | -5.07262 | 119.55332 | 37 ft | 12 kts | 31° |
| 2026-05-06 07:09 | -5.07189 | 119.55376 | 37 ft | 17 kts | 30° |
| 2026-05-06 07:09 | -5.07071 | 119.55444 | 37 ft | 20 kts | 33° |
| 2026-05-06 07:09 | -5.06943 | 119.55518 | 37 ft | 22 kts | 29° |
| 2026-05-06 07:10 | -5.06804 | 119.55599 | 37 ft | 24 kts | 30° |
| 2026-05-06 07:10 | -5.06670 | 119.55687 | 38 ft | 20 kts | 63° |
| 2026-05-06 07:10 | -5.06698 | 119.55769 | 38 ft | 12 kts | 131° |
| 2026-05-06 07:10 | -5.06713 | 119.55852 | 38 ft | 13 kts | 57° |
| 2026-05-06 07:11 | -5.06647 | 119.55896 | 39 ft | 10 kts | 31° |
| 2026-05-06 07:11 | -5.06642 | 119.55958 | 39 ft | 12 kts | 124° |
| 2026-05-06 07:11 | -5.06708 | 119.56036 | 38 ft | 18 kts | 130° |
| 2026-05-06 07:11 | -5.06795 | 119.56143 | 38 ft | 20 kts | 128° |
| 2026-05-06 07:12 | -5.06858 | 119.56233 | 38 ft | 8 kts | 111° |
| 2026-05-06 07:12 | -5.06877 | 119.56258 | 38 ft | 0 kts | 196° |
| 2026-05-06 07:12 | -5.06877 | 119.56241 | 38 ft | 3 kts | 282° |
| 2026-05-06 07:12 | -5.06862 | 119.56219 | 38 ft | 17 kts | 309° |
| 2026-05-06 07:13 | -5.06650 | 119.55969 | 39 ft | 76 kts | 310° |
| 2026-05-06 07:13 | -5.06196 | 119.55438 | 50 ft | 120 kts | 310° |
| 2026-05-06 07:13 | -5.05670 | 119.54788 | 524 ft | 120 kts | 309° |
| 2026-05-06 07:13 | -5.05176 | 119.54095 | 1004 ft | 123 kts | 308° |
| 2026-05-06 07:14 | -5.04648 | 119.53407 | 1453 ft | 126 kts | 308° |
| 2026-05-06 07:14 | -5.04092 | 119.52713 | 1904 ft | 129 kts | 309° |
| 2026-05-06 07:14 | -5.03522 | 119.52004 | 2364 ft | 132 kts | 310° |
| 2026-05-06 07:14 | -5.02909 | 119.51226 | 2632 ft | 152 kts | 310° |
| 2026-05-06 07:15 | -5.02237 | 119.50381 | 2984 ft | 156 kts | 311° |
| 2026-05-06 07:15 | -5.01534 | 119.49473 | 3089 ft | 175 kts | 309° |
| 2026-05-06 07:15 | -5.00799 | 119.48422 | 3181 ft | 192 kts | 293° |
| 2026-05-06 07:15 | -5.00779 | 119.47113 | 3491 ft | 193 kts | 245° |
| 2026-05-06 07:16 | -5.01650 | 119.46169 | 3765 ft | 189 kts | 200° |
| 2026-05-06 07:16 | -5.02903 | 119.46096 | 4042 ft | 182 kts | 155° |
| 2026-05-06 07:16 | -5.03775 | 119.46926 | 4435 ft | 175 kts | 110° |
| 2026-05-06 07:16 | -5.03973 | 119.48118 | 4696 ft | 176 kts | 95° |
| 2026-05-06 07:17 | -5.04001 | 119.49346 | 4981 ft | 177 kts | 89° |
| 2026-05-06 07:17 | -5.03954 | 119.50576 | 5267 ft | 177 kts | 87° |
| 2026-05-06 07:17 | -5.03870 | 119.51812 | 5535 ft | 178 kts | 85° |
| 2026-05-06 07:17 | -5.03724 | 119.53051 | 5831 ft | 179 kts | 79° |
| 2026-05-06 07:18 | -5.03089 | 119.54108 | 6065 ft | 182 kts | 45° |
| 2026-05-06 07:18 | -5.02120 | 119.54944 | 6297 ft | 185 kts | 43° |
| 2026-05-06 07:18 | -5.01093 | 119.55733 | 6552 ft | 188 kts | 35° |
| 2026-05-06 07:18 | -4.99951 | 119.56379 | 6794 ft | 189 kts | 31° |
| 2026-05-06 07:19 | -4.98788 | 119.57002 | 7047 ft | 190 kts | 32° |
| 2026-05-06 07:19 | -4.97652 | 119.57677 | 7306 ft | 190 kts | 35° |
| 2026-05-06 07:19 | -4.96570 | 119.58432 | 7531 ft | 189 kts | 43° |
| 2026-05-06 07:19 | -4.95575 | 119.59303 | 7802 ft | 190 kts | 42° |
| 2026-05-06 07:20 | -4.94530 | 119.60123 | 8022 ft | 191 kts | 40° |
| 2026-05-06 07:20 | -4.93497 | 119.60960 | 8273 ft | 191 kts | 42° |
| 2026-05-06 07:20 | -4.92463 | 119.61812 | 8486 ft | 192 kts | 42° |
| 2026-05-06 07:20 | -4.91418 | 119.62649 | 8717 ft | 192 kts | 41° |
| 2026-05-06 07:21 | -4.90374 | 119.63493 | 8937 ft | 193 kts | 42° |
| 2026-05-06 07:21 | -4.89342 | 119.64337 | 9176 ft | 194 kts | 42° |
| 2026-05-06 07:21 | -4.88287 | 119.65190 | 9405 ft | 195 kts | 41° |
| 2026-05-06 07:21 | -4.87231 | 119.66046 | 9657 ft | 196 kts | 42° |
| 2026-05-06 07:22 | -4.86172 | 119.66907 | 9883 ft | 196 kts | 42° |
| 2026-05-06 07:22 | -4.85103 | 119.67773 | 10108 ft | 197 kts | 42° |
| 2026-05-06 07:22 | -4.84035 | 119.68639 | 10348 ft | 198 kts | 42° |
| 2026-05-06 07:22 | -4.82957 | 119.69511 | 10557 ft | 199 kts | 42° |
| 2026-05-06 07:23 | -4.81879 | 119.70390 | 10765 ft | 200 kts | 42° |
| 2026-05-06 07:23 | -4.80797 | 119.71266 | 10979 ft | 200 kts | 42° |
| 2026-05-06 07:23 | -4.79709 | 119.72143 | 11159 ft | 201 kts | 42° |
| 2026-05-06 07:23 | -4.78626 | 119.73029 | 11367 ft | 201 kts | 42° |
| 2026-05-06 07:24 | -4.77534 | 119.73912 | 11562 ft | 202 kts | 42° |
| 2026-05-06 07:24 | -4.76437 | 119.74799 | 11749 ft | 203 kts | 42° |
| 2026-05-06 07:24 | -4.75338 | 119.75695 | 11946 ft | 204 kts | 43° |
| 2026-05-06 07:24 | -4.74232 | 119.76588 | 12127 ft | 204 kts | 41° |
| 2026-05-06 07:25 | -4.73125 | 119.77485 | 12286 ft | 206 kts | 42° |
| 2026-05-06 07:25 | -4.72009 | 119.78391 | 12449 ft | 207 kts | 42° |
| 2026-05-06 07:25 | -4.70890 | 119.79301 | 12640 ft | 207 kts | 42° |
| 2026-05-06 07:25 | -4.69763 | 119.80208 | 12821 ft | 207 kts | 42° |
| 2026-05-06 07:26 | -4.68656 | 119.81111 | 12974 ft | 208 kts | 42° |
| 2026-05-06 07:26 | -4.67526 | 119.82026 | 13122 ft | 209 kts | 42° |
| 2026-05-06 07:26 | -4.66392 | 119.82944 | 13270 ft | 210 kts | 42° |
| 2026-05-06 07:26 | -4.65254 | 119.83870 | 13431 ft | 211 kts | 42° |
| 2026-05-06 07:27 | -4.64107 | 119.84796 | 13587 ft | 212 kts | 41° |
| 2026-05-06 07:27 | -4.62957 | 119.85731 | 13732 ft | 213 kts | 42° |
| 2026-05-06 07:27 | -4.61802 | 119.86665 | 13876 ft | 214 kts | 42° |
| 2026-05-06 07:27 | -4.60646 | 119.87602 | 14018 ft | 214 kts | 41° |
| 2026-05-06 07:28 | -4.59486 | 119.88540 | 14145 ft | 215 kts | 41° |
| 2026-05-06 07:28 | -4.58328 | 119.89483 | 14280 ft | 214 kts | 41° |
| 2026-05-06 07:28 | -4.56021 | 119.91351 | 14556 ft | 215 kts | 41° |
| 2026-05-06 07:29 | -4.54857 | 119.92295 | 14694 ft | 214 kts | 41° |
| 2026-05-06 07:29 | -4.53690 | 119.93240 | 14761 ft | 217 kts | 41° |
| 2026-05-06 07:29 | -4.52505 | 119.94203 | 14804 ft | 222 kts | 41° |
| 2026-05-06 07:29 | -4.51289 | 119.95186 | 14823 ft | 227 kts | 41° |
| 2026-05-06 07:30 | -4.50051 | 119.96190 | 14826 ft | 231 kts | 41° |
| 2026-05-06 07:30 | -4.48790 | 119.97213 | 14832 ft | 235 kts | 41° |
| 2026-05-06 07:30 | -4.47504 | 119.98250 | 14825 ft | 238 kts | 41° |
| 2026-05-06 07:30 | -4.46224 | 119.99309 | 14832 ft | 240 kts | 42° |
| 2026-05-06 07:31 | -4.44961 | 120.00381 | 14841 ft | 242 kts | 43° |
| 2026-05-06 07:31 | -4.43676 | 120.01469 | 14879 ft | 242 kts | 43° |
| 2026-05-06 07:31 | -4.42387 | 120.02557 | 14894 ft | 243 kts | 42° |
| 2026-05-06 07:31 | -4.41083 | 120.03651 | 14890 ft | 245 kts | 42° |
| 2026-05-06 07:32 | -4.39763 | 120.04745 | 14897 ft | 249 kts | 41° |
| 2026-05-06 07:32 | -4.38402 | 120.05857 | 14904 ft | 256 kts | 41° |
| 2026-05-06 07:32 | -4.37018 | 120.06987 | 14909 ft | 255 kts | 42° |
| 2026-05-06 07:32 | -4.35656 | 120.08108 | 14957 ft | 251 kts | 41° |
| 2026-05-06 07:33 | -4.34321 | 120.09212 | 15005 ft | 247 kts | 42° |
| 2026-05-06 07:33 | -4.33000 | 120.10303 | 15033 ft | 245 kts | 42° |
| 2026-05-06 07:33 | -4.31686 | 120.11388 | 15061 ft | 244 kts | 41° |
| 2026-05-06 07:33 | -4.30353 | 120.12491 | 14883 ft | 252 kts | 42° |
| 2026-05-06 07:34 | -4.28992 | 120.13620 | 14757 ft | 256 kts | 42° |
| 2026-05-06 07:34 | -4.27619 | 120.14763 | 14692 ft | 256 kts | 42° |
| 2026-05-06 07:34 | -4.26271 | 120.15883 | 14661 ft | 255 kts | 41° |
| 2026-05-06 07:34 | -4.24908 | 120.17011 | 14640 ft | 253 kts | 42° |
| 2026-05-06 07:35 | -4.23553 | 120.18128 | 14631 ft | 251 kts | 42° |
| 2026-05-06 07:35 | -4.22201 | 120.19235 | 14623 ft | 250 kts | 42° |
| 2026-05-06 07:35 | -4.20855 | 120.20339 | 14628 ft | 249 kts | 42° |
| 2026-05-06 07:35 | -4.19514 | 120.21438 | 14621 ft | 248 kts | 41° |
| 2026-05-06 07:36 | -4.18181 | 120.22536 | 14620 ft | 247 kts | 42° |
| 2026-05-06 07:36 | -4.16856 | 120.23632 | 14617 ft | 246 kts | 42° |
| 2026-05-06 07:36 | -4.15536 | 120.24723 | 14619 ft | 245 kts | 41° |
| 2026-05-06 07:36 | -4.14223 | 120.25811 | 14617 ft | 245 kts | 42° |
| 2026-05-06 07:37 | -4.12931 | 120.26883 | 14617 ft | 244 kts | 42° |
| 2026-05-06 07:37 | -4.11623 | 120.27967 | 14617 ft | 243 kts | 42° |
| 2026-05-06 07:37 | -4.10315 | 120.29046 | 14620 ft | 243 kts | 42° |
| 2026-05-06 07:37 | -4.09010 | 120.30118 | 14617 ft | 243 kts | 41° |
| 2026-05-06 07:38 | -4.07705 | 120.31192 | 14614 ft | 242 kts | 41° |
| 2026-05-06 07:38 | -4.06403 | 120.32269 | 14617 ft | 242 kts | 42° |
| 2026-05-06 07:38 | -4.05107 | 120.33343 | 14619 ft | 241 kts | 41° |
| 2026-05-06 07:38 | -4.03812 | 120.34413 | 14621 ft | 241 kts | 42° |
| 2026-05-06 07:39 | -4.02519 | 120.35480 | 14621 ft | 241 kts | 42° |
| 2026-05-06 07:39 | -4.01224 | 120.36550 | 14622 ft | 242 kts | 42° |
| 2026-05-06 07:39 | -3.99924 | 120.37624 | 14619 ft | 241 kts | 42° |
| 2026-05-06 07:39 | -3.98628 | 120.38692 | 14624 ft | 241 kts | 42° |
| 2026-05-06 07:40 | -3.97333 | 120.39760 | 14622 ft | 241 kts | 42° |
| 2026-05-06 07:40 | -3.96035 | 120.40831 | 14623 ft | 241 kts | 42° |
| 2026-05-06 07:40 | -3.94760 | 120.41885 | 14623 ft | 241 kts | 42° |
| 2026-05-06 07:40 | -3.93471 | 120.42956 | 14624 ft | 241 kts | 42° |
| 2026-05-06 07:41 | -3.92183 | 120.44026 | 14625 ft | 241 kts | 42° |
| 2026-05-06 07:41 | -3.90894 | 120.45096 | 14626 ft | 241 kts | 42° |
| 2026-05-06 07:41 | -3.89602 | 120.46165 | 14624 ft | 241 kts | 41° |
| 2026-05-06 07:41 | -3.88311 | 120.47233 | 14624 ft | 241 kts | 42° |
| 2026-05-06 07:42 | -3.87018 | 120.48302 | 14622 ft | 241 kts | 41° |
| 2026-05-06 07:42 | -3.85723 | 120.49370 | 14625 ft | 241 kts | 42° |
| 2026-05-06 07:42 | -3.84428 | 120.50438 | 14623 ft | 241 kts | 41° |
| 2026-05-06 07:42 | -3.83130 | 120.51503 | 14624 ft | 241 kts | 41° |
| 2026-05-06 07:43 | -3.81833 | 120.52568 | 14623 ft | 241 kts | 41° |
| 2026-05-06 07:43 | -3.80537 | 120.53633 | 14622 ft | 241 kts | 41° |
| 2026-05-06 07:43 | -3.79240 | 120.54703 | 14618 ft | 241 kts | 41° |
| 2026-05-06 07:43 | -3.77947 | 120.55771 | 14623 ft | 241 kts | 41° |
| 2026-05-06 07:44 | -3.76652 | 120.56841 | 14624 ft | 241 kts | 41° |
| 2026-05-06 07:44 | -3.75348 | 120.57917 | 14625 ft | 246 kts | 41° |
| 2026-05-06 07:44 | -3.74003 | 120.59020 | 14623 ft | 254 kts | 41° |
| 2026-05-06 07:44 | -3.72624 | 120.60158 | 14626 ft | 260 kts | 41° |
| 2026-05-06 07:45 | -3.71215 | 120.61327 | 14625 ft | 265 kts | 41° |
| 2026-05-06 07:45 | -3.69801 | 120.62499 | 14625 ft | 269 kts | 41° |
| 2026-05-06 07:45 | -3.68346 | 120.63700 | 14624 ft | 272 kts | 41° |
| 2026-05-06 07:45 | -3.66875 | 120.64912 | 14623 ft | 275 kts | 41° |
| 2026-05-06 07:46 | -3.65392 | 120.66132 | 14624 ft | 277 kts | 41° |
| 2026-05-06 07:46 | -3.63900 | 120.67360 | 14623 ft | 278 kts | 41° |
| 2026-05-06 07:46 | -3.62401 | 120.68597 | 14626 ft | 280 kts | 41° |
| 2026-05-06 07:46 | -3.60897 | 120.69838 | 14625 ft | 280 kts | 41° |
| 2026-05-06 07:47 | -3.59898 | 120.70661 | 14626 ft | 281 kts | 41° |
| 2026-05-06 07:47 | -3.58387 | 120.71908 | 14626 ft | 282 kts | 41° |
| 2026-05-06 07:47 | -3.56870 | 120.73159 | 14625 ft | 282 kts | 41° |
| 2026-05-06 07:47 | -3.55354 | 120.74409 | 14624 ft | 283 kts | 41° |
| 2026-05-06 07:48 | -3.53836 | 120.75660 | 14628 ft | 283 kts | 41° |
| 2026-05-06 07:48 | -3.52313 | 120.76915 | 14628 ft | 283 kts | 41° |
| 2026-05-06 07:48 | -3.50796 | 120.78166 | 14630 ft | 283 kts | 41° |
| 2026-05-06 07:48 | -3.49278 | 120.79417 | 14631 ft | 283 kts | 41° |
| 2026-05-06 07:49 | -3.47759 | 120.80670 | 14631 ft | 283 kts | 41° |
| 2026-05-06 07:49 | -3.46241 | 120.81921 | 14632 ft | 283 kts | 41° |
| 2026-05-06 07:49 | -3.44721 | 120.83173 | 14635 ft | 283 kts | 41° |
| 2026-05-06 07:49 | -3.43202 | 120.84425 | 14633 ft | 283 kts | 41° |
| 2026-05-06 07:50 | -3.41684 | 120.85676 | 14633 ft | 283 kts | 41° |
| 2026-05-06 07:50 | -3.40164 | 120.86930 | 14641 ft | 283 kts | 41° |
| 2026-05-06 07:50 | -3.38645 | 120.88182 | 14639 ft | 283 kts | 41° |
| 2026-05-06 07:50 | -3.37126 | 120.89434 | 14643 ft | 283 kts | 41° |
| 2026-05-06 07:51 | -3.35607 | 120.90685 | 14644 ft | 283 kts | 41° |
| 2026-05-06 07:51 | -3.34088 | 120.91937 | 14645 ft | 283 kts | 41° |
| 2026-05-06 07:51 | -3.32566 | 120.93191 | 14646 ft | 283 kts | 41° |
| 2026-05-06 07:51 | -3.31047 | 120.94442 | 14646 ft | 283 kts | 41° |
| 2026-05-06 07:52 | -3.29532 | 120.95692 | 14648 ft | 280 kts | 41° |
| 2026-05-06 07:52 | -3.28053 | 120.96911 | 14648 ft | 279 kts | 41° |
| 2026-05-06 07:52 | -3.26550 | 120.98145 | 14650 ft | 280 kts | 41° |
| 2026-05-06 07:52 | -3.25047 | 120.99384 | 14645 ft | 280 kts | 41° |
| 2026-05-06 07:53 | -3.23542 | 121.00626 | 14647 ft | 281 kts | 41° |
| 2026-05-06 07:53 | -3.22031 | 121.01872 | 14655 ft | 281 kts | 41° |
| 2026-05-06 07:53 | -3.20518 | 121.03120 | 14654 ft | 282 kts | 41° |
| 2026-05-06 07:53 | -3.19001 | 121.04370 | 14654 ft | 282 kts | 41° |
| 2026-05-06 07:54 | -3.17481 | 121.05620 | 14655 ft | 282 kts | 41° |
| 2026-05-06 07:54 | -3.15982 | 121.06859 | 14655 ft | 275 kts | 41° |
| 2026-05-06 07:54 | -3.14518 | 121.08065 | 14653 ft | 271 kts | 41° |
| 2026-05-06 07:54 | -3.13068 | 121.09255 | 14684 ft | 269 kts | 41° |
| 2026-05-06 07:55 | -3.11623 | 121.10446 | 14669 ft | 269 kts | 41° |
| 2026-05-06 07:55 | -3.10180 | 121.11636 | 14650 ft | 268 kts | 41° |
| 2026-05-06 07:55 | -3.08742 | 121.12818 | 14650 ft | 267 kts | 41° |
| 2026-05-06 07:55 | -3.07310 | 121.13991 | 14639 ft | 266 kts | 41° |
| 2026-05-06 07:56 | -3.05887 | 121.15156 | 14639 ft | 263 kts | 41° |
| 2026-05-06 07:56 | -3.04474 | 121.16313 | 14639 ft | 261 kts | 41° |
| 2026-05-06 07:56 | -3.03073 | 121.17463 | 14647 ft | 259 kts | 41° |
| 2026-05-06 07:56 | -3.01698 | 121.18592 | 14646 ft | 258 kts | 41° |
| 2026-05-06 07:57 | -3.00314 | 121.19729 | 14648 ft | 257 kts | 41° |
| 2026-05-06 07:57 | -2.98932 | 121.20864 | 14654 ft | 257 kts | 41° |
| 2026-05-06 07:57 | -2.97552 | 121.21997 | 14650 ft | 256 kts | 41° |
| 2026-05-06 07:57 | -2.96175 | 121.23127 | 14648 ft | 256 kts | 41° |
| 2026-05-06 07:58 | -2.94797 | 121.24256 | 14648 ft | 255 kts | 41° |
| 2026-05-06 07:58 | -2.93421 | 121.25383 | 14649 ft | 255 kts | 41° |
| 2026-05-06 07:58 | -2.92051 | 121.26510 | 14646 ft | 255 kts | 41° |
| 2026-05-06 07:58 | -2.90700 | 121.27622 | 14641 ft | 254 kts | 41° |
| 2026-05-06 07:59 | -2.89334 | 121.28743 | 14641 ft | 253 kts | 41° |
| 2026-05-06 07:59 | -2.87972 | 121.29860 | 14656 ft | 253 kts | 41° |
| 2026-05-06 07:59 | -2.86612 | 121.30975 | 14650 ft | 253 kts | 41° |
| 2026-05-06 07:59 | -2.85251 | 121.32093 | 14655 ft | 253 kts | 41° |
| 2026-05-06 08:00 | -2.83887 | 121.33213 | 14651 ft | 254 kts | 41° |
| 2026-05-06 08:00 | -2.82519 | 121.34335 | 14650 ft | 255 kts | 41° |
| 2026-05-06 08:00 | -2.81149 | 121.35456 | 14645 ft | 255 kts | 41° |
| 2026-05-06 08:00 | -2.79779 | 121.36581 | 14648 ft | 255 kts | 41° |
| 2026-05-06 08:01 | -2.78412 | 121.37703 | 14648 ft | 254 kts | 41° |
| 2026-05-06 08:01 | -2.77043 | 121.38824 | 14649 ft | 254 kts | 41° |
| 2026-05-06 08:01 | -2.75678 | 121.39944 | 14644 ft | 254 kts | 41° |
| 2026-05-06 08:01 | -2.74313 | 121.41064 | 14654 ft | 253 kts | 41° |
| 2026-05-06 08:02 | -2.72950 | 121.42182 | 14658 ft | 253 kts | 41° |
| 2026-05-06 08:02 | -2.71586 | 121.43301 | 14654 ft | 254 kts | 41° |
| 2026-05-06 08:02 | -2.70220 | 121.44420 | 14653 ft | 254 kts | 41° |
| 2026-05-06 08:02 | -2.68858 | 121.45537 | 14654 ft | 254 kts | 41° |
| 2026-05-06 08:03 | -2.67495 | 121.46657 | 14653 ft | 254 kts | 41° |
| 2026-05-06 08:03 | -2.66130 | 121.47777 | 14658 ft | 254 kts | 41° |
| 2026-05-06 08:03 | -2.64764 | 121.48899 | 14657 ft | 254 kts | 41° |
| 2026-05-06 08:03 | -2.63399 | 121.50016 | 14658 ft | 254 kts | 41° |
| 2026-05-06 08:04 | -2.62033 | 121.51134 | 14655 ft | 254 kts | 41° |
| 2026-05-06 08:04 | -2.60669 | 121.52252 | 14657 ft | 253 kts | 41° |
| 2026-05-06 08:04 | -2.59306 | 121.53371 | 14655 ft | 253 kts | 41° |
| 2026-05-06 08:04 | -2.57942 | 121.54490 | 14657 ft | 254 kts | 41° |
| 2026-05-06 08:05 | -2.56575 | 121.55613 | 14657 ft | 253 kts | 41° |
| 2026-05-06 08:05 | -2.55229 | 121.56718 | 14659 ft | 254 kts | 41° |
| 2026-05-06 08:05 | -2.53844 | 121.57851 | 14664 ft | 254 kts | 41° |
| 2026-05-06 08:05 | -2.52487 | 121.58961 | 14656 ft | 254 kts | 41° |
| 2026-05-06 08:06 | -2.51116 | 121.60086 | 14659 ft | 255 kts | 41° |
| 2026-05-06 08:06 | -2.49745 | 121.61212 | 14655 ft | 255 kts | 41° |
| 2026-05-06 08:06 | -2.48376 | 121.62336 | 14630 ft | 255 kts | 41° |
| 2026-05-06 08:06 | -2.46979 | 121.63483 | 14406 ft | 264 kts | 41° |
| 2026-05-06 08:07 | -2.45552 | 121.64662 | 14078 ft | 270 kts | 41° |
| 2026-05-06 08:07 | -2.44098 | 121.65872 | 13750 ft | 272 kts | 41° |
| 2026-05-06 08:07 | -2.42631 | 121.67078 | 13401 ft | 274 kts | 41° |
| 2026-05-06 08:07 | -2.41154 | 121.68293 | 13022 ft | 275 kts | 41° |
| 2026-05-06 08:08 | -2.39682 | 121.69518 | 12644 ft | 275 kts | 42° |
| 2026-05-06 08:08 | -2.38227 | 121.70763 | 12268 ft | 276 kts | 43° |
| 2026-05-06 08:08 | -2.36780 | 121.72017 | 11901 ft | 274 kts | 43° |
| 2026-05-06 08:08 | -2.35343 | 121.73269 | 11547 ft | 273 kts | 43° |
| 2026-05-06 08:09 | -2.33919 | 121.74514 | 11191 ft | 271 kts | 43° |
| 2026-05-06 08:09 | -2.32500 | 121.75754 | 10836 ft | 270 kts | 43° |
| 2026-05-06 08:09 | -2.31102 | 121.76973 | 10481 ft | 270 kts | 43° |
| 2026-05-06 08:09 | -2.29689 | 121.78200 | 10138 ft | 269 kts | 43° |
| 2026-05-06 08:10 | -2.28279 | 121.79422 | 9798 ft | 268 kts | 43° |
| 2026-05-06 08:10 | -2.26873 | 121.80641 | 9422 ft | 267 kts | 43° |
| 2026-05-06 08:10 | -2.25350 | 121.81681 | 9038 ft | 266 kts | 26° |
| 2026-05-06 08:10 | -2.23626 | 121.82340 | 8673 ft | 266 kts | 21° |
| 2026-05-06 08:11 | -2.21878 | 121.82951 | 8309 ft | 266 kts | 21° |
| 2026-05-06 08:11 | -2.20139 | 121.83585 | 7943 ft | 266 kts | 23° |
| 2026-05-06 08:11 | -2.18411 | 121.84269 | 7583 ft | 266 kts | 24° |
| 2026-05-06 08:11 | -2.16695 | 121.84974 | 7222 ft | 265 kts | 24° |
| 2026-05-06 08:12 | -2.14996 | 121.85665 | 6872 ft | 263 kts | 24° |
| 2026-05-06 08:12 | -2.13328 | 121.86342 | 6523 ft | 261 kts | 24° |
| 2026-05-06 08:12 | -2.11636 | 121.86942 | 6162 ft | 252 kts | 12° |
| 2026-05-06 08:12 | -2.09974 | 121.86775 | 5789 ft | 232 kts | 343° |
| 2026-05-06 08:13 | -2.08522 | 121.86188 | 5440 ft | 219 kts | 333° |
| 2026-05-06 08:13 | -2.07243 | 121.85402 | 5129 ft | 217 kts | 323° |
| 2026-05-06 08:13 | -2.06257 | 121.84287 | 4848 ft | 215 kts | 290° |
| 2026-05-06 08:13 | -2.06154 | 121.82837 | 4492 ft | 206 kts | 251° |
| 2026-05-06 08:14 | -2.06719 | 121.81576 | 4111 ft | 195 kts | 237° |
| 2026-05-06 08:14 | -2.07442 | 121.80470 | 3799 ft | 185 kts | 230° |
| 2026-05-06 08:14 | -2.08237 | 121.79497 | 3516 ft | 176 kts | 225° |
| 2026-05-06 08:14 | -2.09042 | 121.78593 | 3273 ft | 172 kts | 224° |
| 2026-05-06 08:15 | -2.09855 | 121.77720 | 3006 ft | 171 kts | 223° |
| 2026-05-06 08:15 | -2.10671 | 121.76851 | 2733 ft | 171 kts | 224° |
| 2026-05-06 08:15 | -2.11476 | 121.75997 | 2472 ft | 170 kts | 225° |
| 2026-05-06 08:15 | -2.12278 | 121.75117 | 2182 ft | 169 kts | 226° |
| 2026-05-06 08:16 | -2.13062 | 121.74256 | 1897 ft | 169 kts | 227° |
| 2026-05-06 08:16 | -2.13830 | 121.73399 | 1678 ft | 157 kts | 228° |
| 2026-05-06 08:16 | -2.14504 | 121.72640 | 1482 ft | 137 kts | 228° |
| 2026-05-06 08:16 | -2.15112 | 121.71956 | 1311 ft | 129 kts | 228° |
| 2026-05-06 08:17 | -2.15702 | 121.71283 | 1155 ft | 128 kts | 229° |
| 2026-05-06 08:17 | -2.16289 | 121.70609 | 976 ft | 128 kts | 230° |
| 2026-05-06 08:17 | -2.16870 | 121.69937 | 795 ft | 127 kts | 230° |
| 2026-05-06 08:17 | -2.17441 | 121.69275 | 639 ft | 125 kts | 231° |
| 2026-05-06 08:18 | -2.18002 | 121.68629 | 487 ft | 123 kts | 227° |
| 2026-05-06 08:18 | -2.18593 | 121.68002 | 296 ft | 126 kts | 228° |
| 2026-05-06 08:18 | -2.19164 | 121.67353 | 123 ft | 123 kts | 230° |
| 2026-05-06 08:18 | -2.19716 | 121.66731 | 19 ft | 113 kts | 229° |
| 2026-05-06 08:19 | -2.20084 | 121.66316 | 18 ft | 39 kts | 230° |
| 2026-05-06 08:19 | -2.20135 | 121.66251 | 15 ft | 0 kts | 208° |
| 2026-05-06 08:19 | -2.20137 | 121.66258 | 16 ft | 1 kts | 93° |
| 2026-05-06 08:19 | -2.20099 | 121.66304 | 17 ft | 12 kts | 49° |
| 2026-05-06 08:20 | -2.20080 | 121.66343 | 19 ft | 4 kts | 121° |
| 2026-05-06 08:20 | -2.20118 | 121.66376 | 13 ft | 9 kts | 137° |
| 2026-05-06 08:20 | -2.20170 | 121.66422 | 14 ft | 10 kts | 138° |
| 2026-05-06 08:20 | -2.20215 | 121.66457 | 13 ft | 4 kts | 168° |
| 2026-05-06 08:21 | -2.20243 | 121.66435 | 14 ft | 7 kts | 231° |
| 2026-05-06 08:21 | -2.20274 | 121.66408 | 14 ft | 2 kts | 177° |
| 2026-05-06 08:21 | -2.20283 | 121.66417 | 15 ft | 3 kts | 138° |
| 2026-05-06 08:21 | -2.20307 | 121.66437 | 14 ft | 4 kts | 137° |
| 2026-05-06 08:22 | -2.20308 | 121.66439 | 14 ft | 0 kts | 138° |